Weather at Afton Municipal Airport

Public forecast

Using degrees Fahrenheit for public forecast. Weather courtesy of forecast.io.

Current aviation weather report (METAR) for Afton Municipal Airport

Retrieved 2020/12/04 22:35 UTC (10 minutes ago):

KAFO 042235Z AUTO 00000KT 10SM CLR M04/M12 A3040 RMK AO2

Closest aviation forecast (TAF) to Afton Municipal Airport

Closest forecast is Miley Memorial Field, 37.5 nm (69.4 km) ESE. Retrieved 2020/12/04 18:33 UTC (4 hours ago):

TAF KBPI 041731Z 0418/0518 VRB05KT P6SM SKC FM050300 03006KT P6SM SKC FM051700 VRB06KT P6SM FEW250